Time;durP1;ratioP1;P1;durP2;ratioP2;P2;SDS_P1;SDS_P2;PMS_P1;PMS_P2;Temp;Humidity;BMP_temperature;BMP_pressure;BME280_temperature;BME280_humidity;BME280_pressure;Samples;Min_cycle;Max_cycle;Signal;HPM_P1;HPM_P2
2021/12/31 00:00:28;;;;;;;;;;;10.80;99.90;;;;;;4997992;28;19968;-84
2021/12/31 00:02:54;;;;;;;;;;;10.80;99.90;;;;;;5016983;28;20315;-84
2021/12/31 00:05:19;;;;;;;;;;;10.80;99.90;;;;;;4999924;28;19913;-87
2021/12/31 00:07:45;;;;;;;;;;;10.80;99.90;;;;;;5016664;28;19920;-85
2021/12/31 00:10:11;;;;;;;;;;;10.80;99.90;;;;;;5016227;28;20384;-84
2021/12/31 00:12:36;;;;;;;;;;;10.80;99.90;;;;;;5016197;28;19917;-83
2021/12/31 00:15:03;;;;;;;;;;;10.80;99.90;;;;;;5034371;28;19949;-85
2021/12/31 00:17:28;;;;;;;;;;;10.80;99.90;;;;;;4999931;28;20008;-84
2021/12/31 00:20:02;;;;;;;;;;;10.80;99.90;;;;;;5015989;28;20012;-84
2021/12/31 00:25:11;;;;;;;;;;;10.80;99.90;;;;;;5016570;28;19917;-85
2021/12/31 00:27:37;;;;;;;;;;;10.80;99.90;;;;;;5015859;28;19943;-84
2021/12/31 00:30:04;;;;;;;;;;;10.80;99.90;;;;;;5015150;28;19913;-84
2021/12/31 00:32:29;;;;;;;;;;;10.70;99.90;;;;;;5000199;28;20115;-84
2021/12/31 00:34:55;;;;;;;;;;;10.80;99.90;;;;;;4999949;28;20063;-84
2021/12/31 00:37:39;;;;;;;;;;;10.80;99.90;;;;;;5013970;28;19921;-84
2021/12/31 00:40:06;;;;;;;;;;;10.80;99.90;;;;;;4998880;28;19921;-85
2021/12/31 00:42:32;;;;;;;;;;;10.80;99.90;;;;;;5013042;28;19927;-85
2021/12/31 00:44:57;;;;;;;;;;;10.70;99.90;;;;;;4980449;28;19917;-84
2021/12/31 00:47:23;;;;;;;;;;;10.80;99.90;;;;;;4987787;28;20395;-84
2021/12/31 00:49:48;;;;;;;;;;;10.80;99.90;;;;;;4990455;28;19968;-84
2021/12/31 00:52:14;;;;;;;;;;;10.80;99.90;;;;;;4995562;28;19968;-85
2021/12/31 00:54:40;;;;;;;;;;;10.80;99.90;;;;;;5039420;28;19924;-84
2021/12/31 00:57:06;;;;;;;;;;;10.80;99.90;;;;;;4998953;28;20498;-85
2021/12/31 00:59:32;;;;;;;;;;;10.80;99.90;;;;;;5015434;28;19917;-84
2021/12/31 01:01:58;;;;;;;;;;;10.80;99.90;;;;;;5033614;28;19909;-84
2021/12/31 01:04:24;;;;;;;;;;;10.80;99.90;;;;;;5015681;28;19917;-84
2021/12/31 01:06:50;;;;;;;;;;;10.80;99.90;;;;;;5015215;28;19920;-85
2021/12/31 01:09:16;;;;;;;;;;;10.80;99.90;;;;;;4995439;28;19917;-84
2021/12/31 01:11:46;;;;;;;;;;;10.80;99.90;;;;;;4979434;28;20337;-84
2021/12/31 01:14:24;;;;;;;;;;;10.80;99.90;;;;;;4979945;28;19917;-85
2021/12/31 01:16:56;;;;;;;;;;;10.80;99.90;;;;;;4979269;28;19913;-84
2021/12/31 01:21:48;;;;;;;;;;;10.70;99.90;;;;;;5006085;28;19913;-84
2021/12/31 01:24:13;;;;;;;;;;;10.80;99.90;;;;;;5015605;28;19921;-85
2021/12/31 01:26:39;;;;;;;;;;;10.80;99.90;;;;;;5007803;28;19922;-85
2021/12/31 01:29:05;;;;;;;;;;;10.80;99.90;;;;;;5014793;28;20003;-84
2021/12/31 01:31:30;;;;;;;;;;;10.80;99.90;;;;;;4995822;28;19917;-84
2021/12/31 01:33:56;;;;;;;;;;;10.80;99.90;;;;;;4995593;28;19972;-84
2021/12/31 01:36:21;;;;;;;;;;;10.70;99.90;;;;;;5001073;28;19917;-84
2021/12/31 01:38:47;;;;;;;;;;;10.80;99.90;;;;;;4997876;28;20276;-84
2021/12/31 01:41:13;;;;;;;;;;;10.80;99.90;;;;;;5011643;28;20012;-84
2021/12/31 01:43:39;;;;;;;;;;;10.80;99.90;;;;;;4980325;28;19917;-83
2021/12/31 01:46:11;;;;;;;;;;;10.80;99.90;;;;;;5014274;28;19913;-85
2021/12/31 01:51:21;;;;;;;;;;;10.80;99.90;;;;;;5031168;28;19940;-84
2021/12/31 01:53:47;;;;;;;;;;;10.80;99.90;;;;;;4998583;28;20376;-84
2021/12/31 01:56:12;;;;;;;;;;;10.80;99.90;;;;;;4997866;28;20269;-84
2021/12/31 01:58:38;;;;;;;;;;;10.80;99.90;;;;;;5009062;28;19925;-85
2021/12/31 02:01:06;;;;;;;;;;;10.80;99.90;;;;;;4976481;28;19991;-84
2021/12/31 02:03:32;;;;;;;;;;;10.80;99.90;;;;;;4977801;28;20300;-84
2021/12/31 02:05:58;;;;;;;;;;;10.80;99.90;;;;;;4990576;28;19914;-85
2021/12/31 02:08:23;;;;;;;;;;;10.80;99.90;;;;;;4998213;28;19924;-84
2021/12/31 02:10:52;;;;;;;;;;;10.80;99.90;;;;;;5010718;28;20308;-83
2021/12/31 02:13:19;;;;;;;;;;;10.80;99.90;;;;;;5011396;28;19921;-84
2021/12/31 02:15:44;;;;;;;;;;;10.80;99.90;;;;;;5013943;28;19919;-85
2021/12/31 02:18:10;;;;;;;;;;;10.80;99.90;;;;;;4997965;28;19921;-83
2021/12/31 02:20:40;;;;;;;;;;;10.80;99.90;;;;;;5031522;28;19926;-84
2021/12/31 02:23:06;;;;;;;;;;;10.80;99.90;;;;;;4994566;28;20343;-84
2021/12/31 02:25:33;;;;;;;;;;;10.80;99.90;;;;;;4994447;28;19920;-83
2021/12/31 02:27:59;;;;;;;;;;;10.80;99.90;;;;;;5028449;28;19913;-84
2021/12/31 02:30:24;;;;;;;;;;;10.80;99.90;;;;;;5013735;28;20003;-84
2021/12/31 02:32:50;;;;;;;;;;;10.80;99.90;;;;;;5014137;28;19962;-84
2021/12/31 02:35:16;;;;;;;;;;;10.80;99.90;;;;;;4998011;28;20538;-84
2021/12/31 02:37:42;;;;;;;;;;;10.80;99.90;;;;;;5013489;28;19967;-84
2021/12/31 02:40:09;;;;;;;;;;;10.70;99.90;;;;;;5010877;28;19914;-84
2021/12/31 02:42:35;;;;;;;;;;;10.70;99.90;;;;;;5027094;28;19959;-83
2021/12/31 02:45:01;;;;;;;;;;;10.80;99.90;;;;;;4978327;28;19914;-83
2021/12/31 02:47:26;;;;;;;;;;;10.80;99.90;;;;;;5014147;28;19968;-84
2021/12/31 02:49:53;;;;;;;;;;;10.70;99.90;;;;;;5013206;28;19920;-84
2021/12/31 02:52:19;;;;;;;;;;;10.70;99.90;;;;;;5013630;28;19921;-83
2021/12/31 02:54:47;;;;;;;;;;;10.80;99.90;;;;;;5010578;28;20056;-83
2021/12/31 02:57:14;;;;;;;;;;;10.70;99.90;;;;;;5001392;28;19964;-83
2021/12/31 02:59:40;;;;;;;;;;;10.80;99.90;;;;;;5009714;28;19917;-86
2021/12/31 03:02:06;;;;;;;;;;;10.80;99.90;;;;;;5029476;28;19933;-83
2021/12/31 03:04:34;;;;;;;;;;;10.70;99.90;;;;;;4998025;28;20338;-85
2021/12/31 03:06:59;;;;;;;;;;;10.80;99.90;;;;;;4994737;28;19914;-83
2021/12/31 03:09:26;;;;;;;;;;;10.70;99.90;;;;;;4997314;28;19918;-83
2021/12/31 03:11:55;;;;;;;;;;;10.70;99.90;;;;;;5014523;28;20036;-83
2021/12/31 03:14:21;;;;;;;;;;;10.70;99.90;;;;;;4998340;28;19956;-83
2021/12/31 03:16:47;;;;;;;;;;;10.70;99.90;;;;;;5029765;28;20361;-84
2021/12/31 03:19:13;;;;;;;;;;;10.70;99.90;;;;;;5022726;28;19967;-84
2021/12/31 03:21:39;;;;;;;;;;;10.70;99.90;;;;;;5017729;28;20269;-83
2021/12/31 03:24:05;;;;;;;;;;;10.70;99.90;;;;;;4997897;28;19956;-84
2021/12/31 03:26:30;;;;;;;;;;;10.70;99.90;;;;;;4992411;28;19913;-83
2021/12/31 03:28:56;;;;;;;;;;;10.70;99.90;;;;;;5016509;28;20071;-84
2021/12/31 03:31:22;;;;;;;;;;;10.70;99.90;;;;;;5017152;28;19995;-84
2021/12/31 03:33:47;;;;;;;;;;;10.70;99.90;;;;;;5017402;28;19920;-84
2021/12/31 03:36:13;;;;;;;;;;;10.70;99.90;;;;;;5016901;28;20291;-85
2021/12/31 03:38:38;;;;;;;;;;;10.70;99.90;;;;;;5016511;28;20075;-84
2021/12/31 03:41:04;;;;;;;;;;;10.70;99.90;;;;;;5016963;28;20013;-83
2021/12/31 03:43:30;;;;;;;;;;;10.70;99.90;;;;;;5006427;28;19920;-83
2021/12/31 03:45:55;;;;;;;;;;;10.70;99.90;;;;;;5032950;28;20273;-85
2021/12/31 03:48:21;;;;;;;;;;;10.70;99.90;;;;;;5016589;28;19917;-84
2021/12/31 03:50:47;;;;;;;;;;;10.70;99.90;;;;;;5013467;28;19927;-84
2021/12/31 03:53:14;;;;;;;;;;;10.70;99.90;;;;;;4984192;28;20487;-84
2021/12/31 03:55:40;;;;;;;;;;;10.70;99.90;;;;;;4996570;28;20002;-84
2021/12/31 03:58:06;;;;;;;;;;;10.70;99.90;;;;;;5008942;28;20025;-84
2021/12/31 04:00:31;;;;;;;;;;;10.70;99.90;;;;;;4996578;28;19913;-84
2021/12/31 04:02:57;;;;;;;;;;;10.70;99.90;;;;;;5013280;28;19924;-83
2021/12/31 04:05:24;;;;;;;;;;;10.70;99.90;;;;;;5020820;28;19915;-83
2021/12/31 04:07:51;;;;;;;;;;;10.70;99.90;;;;;;5016181;28;19971;-84
2021/12/31 04:10:16;;;;;;;;;;;10.70;99.90;;;;;;5015934;28;20100;-83
2021/12/31 04:12:42;;;;;;;;;;;10.70;99.90;;;;;;5015165;28;20023;-84
2021/12/31 04:15:08;;;;;;;;;;;10.70;99.90;;;;;;5016389;28;19917;-83
2021/12/31 04:17:33;;;;;;;;;;;10.70;99.90;;;;;;4996208;28;20452;-83
2021/12/31 04:19:59;;;;;;;;;;;10.70;99.90;;;;;;4996235;28;20284;-83
2021/12/31 04:22:27;;;;;;;;;;;10.70;99.90;;;;;;5006058;28;20008;-84
2021/12/31 04:24:53;;;;;;;;;;;10.70;99.90;;;;;;5020907;28;20384;-84
2021/12/31 04:27:19;;;;;;;;;;;10.60;99.90;;;;;;5006633;28;19917;-84
2021/12/31 04:29:51;;;;;;;;;;;10.60;99.90;;;;;;5015445;28;19913;-84
2021/12/31 04:32:17;;;;;;;;;;;10.60;99.90;;;;;;5016238;28;20162;-83
2021/12/31 04:34:43;;;;;;;;;;;10.60;99.90;;;;;;5033747;28;19909;-84
2021/12/31 04:37:08;;;;;;;;;;;10.70;99.90;;;;;;5011907;28;19913;-83
2021/12/31 04:39:34;;;;;;;;;;;10.60;99.90;;;;;;4998480;28;19922;-83
2021/12/31 04:42:00;;;;;;;;;;;10.60;99.90;;;;;;5013815;28;19935;-84
2021/12/31 04:44:25;;;;;;;;;;;10.70;99.90;;;;;;4999523;28;19917;-84
2021/12/31 04:46:51;;;;;;;;;;;10.60;99.90;;;;;;5011405;28;19964;-84
2021/12/31 04:49:16;;;;;;;;;;;10.60;99.90;;;;;;4999105;28;19921;-83
2021/12/31 04:51:42;;;;;;;;;;;10.60;99.90;;;;;;4999541;28;19960;-83
2021/12/31 04:54:14;;;;;;;;;;;10.60;99.90;;;;;;4979861;28;20376;-84
2021/12/31 04:56:40;;;;;;;;;;;10.60;99.90;;;;;;4995312;28;20443;-84
2021/12/31 04:59:05;;;;;;;;;;;10.60;99.90;;;;;;4979030;28;20021;-83
2021/12/31 05:01:31;;;;;;;;;;;10.60;99.90;;;;;;4995906;28;20400;-83
2021/12/31 05:03:56;;;;;;;;;;;10.60;99.90;;;;;;4999005;28;19921;-83
2021/12/31 05:06:22;;;;;;;;;;;10.60;99.90;;;;;;4995047;28;19948;-83
2021/12/31 05:08:48;;;;;;;;;;;10.70;99.90;;;;;;4979080;28;19925;-84
2021/12/31 05:11:13;;;;;;;;;;;10.60;99.90;;;;;;5019412;28;20015;-83
2021/12/31 05:13:39;;;;;;;;;;;10.60;99.90;;;;;;5015051;28;19943;-83
2021/12/31 05:16:06;;;;;;;;;;;10.50;99.90;;;;;;5014652;28;20283;-83
2021/12/31 05:18:31;;;;;;;;;;;10.50;99.90;;;;;;4997742;28;19921;-83
2021/12/31 05:20:57;;;;;;;;;;;10.60;99.90;;;;;;4998549;28;19918;-83
2021/12/31 05:23:23;;;;;;;;;;;10.60;99.90;;;;;;5014478;28;19913;-83
2021/12/31 05:25:49;;;;;;;;;;;10.60;99.90;;;;;;5014163;28;19957;-83
2021/12/31 05:28:14;;;;;;;;;;;10.50;99.90;;;;;;5014550;28;19914;-83
2021/12/31 05:30:40;;;;;;;;;;;10.50;99.90;;;;;;5014480;28;19919;-83
2021/12/31 05:33:06;;;;;;;;;;;10.50;99.90;;;;;;5015016;28;19918;-83
2021/12/31 05:35:31;;;;;;;;;;;10.50;99.90;;;;;;5030711;28;19917;-83
2021/12/31 05:37:57;;;;;;;;;;;10.50;99.90;;;;;;5014302;28;19917;-83
2021/12/31 05:40:23;;;;;;;;;;;10.50;99.90;;;;;;5014199;28;19917;-84
2021/12/31 05:42:49;;;;;;;;;;;10.50;99.90;;;;;;5014995;28;20008;-84
2021/12/31 05:45:15;;;;;;;;;;;10.50;99.90;;;;;;5014447;28;19952;-84
2021/12/31 05:47:40;;;;;;;;;;;10.50;99.90;;;;;;4993928;28;19913;-84
2021/12/31 05:50:10;;;;;;;;;;;10.50;99.90;;;;;;5029805;28;19982;-82
2021/12/31 05:52:36;;;;;;;;;;;10.50;99.90;;;;;;4998457;28;19975;-84
2021/12/31 05:55:05;;;;;;;;;;;10.40;99.90;;;;;;5014483;28;19918;-84
2021/12/31 05:57:30;;;;;;;;;;;10.40;99.90;;;;;;5010579;28;19990;-83
2021/12/31 05:59:56;;;;;;;;;;;10.40;99.90;;;;;;4994082;28;19960;-83
2021/12/31 06:02:21;;;;;;;;;;;10.40;99.90;;;;;;4996629;28;19918;-83
2021/12/31 06:04:47;;;;;;;;;;;10.30;99.90;;;;;;5027392;28;19932;-83
2021/12/31 06:07:12;;;;;;;;;;;10.40;99.90;;;;;;4994045;28;20360;-83
2021/12/31 06:09:38;;;;;;;;;;;10.40;99.90;;;;;;4995532;28;20009;-83
2021/12/31 06:12:04;;;;;;;;;;;10.30;99.90;;;;;;4997568;28;19917;-84
2021/12/31 06:14:30;;;;;;;;;;;10.30;99.90;;;;;;4997818;28;19949;-84
2021/12/31 06:17:02;;;;;;;;;;;10.40;99.90;;;;;;5013672;28;19917;-82
2021/12/31 06:19:28;;;;;;;;;;;10.40;99.90;;;;;;5014361;28;19991;-84
2021/12/31 06:21:53;;;;;;;;;;;10.40;99.90;;;;;;5014112;28;20392;-82
2021/12/31 06:24:19;;;;;;;;;;;10.40;99.90;;;;;;5013974;28;19961;-83
2021/12/31 06:26:45;;;;;;;;;;;10.40;99.90;;;;;;5029573;28;19924;-83
2021/12/31 06:29:10;;;;;;;;;;;10.30;99.90;;;;;;5021105;28;19917;-83
2021/12/31 06:31:36;;;;;;;;;;;10.30;99.90;;;;;;4992826;28;20542;-83
2021/12/31 06:34:01;;;;;;;;;;;10.30;99.90;;;;;;4997628;28;19921;-83
2021/12/31 06:36:27;;;;;;;;;;;10.30;99.90;;;;;;5009719;28;20327;-83
2021/12/31 06:38:53;;;;;;;;;;;10.30;99.90;;;;;;4999228;28;19964;-84
2021/12/31 06:41:20;;;;;;;;;;;10.30;99.90;;;;;;5013358;28;19920;-83
2021/12/31 06:43:45;;;;;;;;;;;10.30;99.90;;;;;;4996320;28;19913;-83
2021/12/31 06:46:11;;;;;;;;;;;10.40;99.90;;;;;;5013138;28;19920;-83
2021/12/31 06:48:37;;;;;;;;;;;10.30;99.90;;;;;;4974332;28;19925;-83
2021/12/31 06:51:02;;;;;;;;;;;10.30;99.90;;;;;;4979877;28;19924;-83
2021/12/31 06:53:28;;;;;;;;;;;10.30;99.90;;;;;;4997224;28;19976;-83
2021/12/31 06:55:53;;;;;;;;;;;10.30;99.90;;;;;;4996594;28;20012;-82
2021/12/31 06:58:19;;;;;;;;;;;10.30;99.90;;;;;;4996401;28;20012;-83
2021/12/31 07:00:45;;;;;;;;;;;10.30;99.90;;;;;;4996810;28;19917;-83
2021/12/31 07:03:11;;;;;;;;;;;10.30;99.90;;;;;;4995565;28;20519;-84
2021/12/31 07:05:40;;;;;;;;;;;10.40;99.90;;;;;;5000231;28;19921;-84
2021/12/31 07:08:05;;;;;;;;;;;10.30;99.90;;;;;;5013093;28;19971;-83
2021/12/31 07:10:31;;;;;;;;;;;10.30;99.90;;;;;;4996231;28;19925;-83
2021/12/31 07:12:57;;;;;;;;;;;10.30;99.90;;;;;;5025850;28;19964;-83
2021/12/31 07:15:23;;;;;;;;;;;10.30;99.90;;;;;;5012031;28;19917;-84
2021/12/31 07:17:49;;;;;;;;;;;10.30;99.90;;;;;;5024678;28;20364;-82
2021/12/31 07:20:14;;;;;;;;;;;10.30;99.90;;;;;;5012303;28;19921;-83
2021/12/31 07:22:40;;;;;;;;;;;10.30;99.90;;;;;;5012698;28;19940;-83
2021/12/31 07:25:06;;;;;;;;;;;10.30;99.90;;;;;;4992745;28;19951;-83
2021/12/31 07:27:32;;;;;;;;;;;10.20;99.90;;;;;;5030026;28;19925;-82
2021/12/31 07:29:58;;;;;;;;;;;10.20;99.90;;;;;;4995936;28;19918;-83
2021/12/31 07:32:24;;;;;;;;;;;10.20;99.90;;;;;;5012124;28;19921;-83
2021/12/31 07:34:50;;;;;;;;;;;10.20;99.90;;;;;;4996455;28;19913;-82
2021/12/31 07:37:15;;;;;;;;;;;10.20;99.90;;;;;;5012470;28;19913;-83
2021/12/31 07:39:47;;;;;;;;;;;10.30;99.90;;;;;;5028682;28;20478;-83
2021/12/31 07:42:12;;;;;;;;;;;10.20;99.90;;;;;;4995902;28;19956;-84
2021/12/31 07:44:38;;;;;;;;;;;10.30;99.90;;;;;;5013061;28;20007;-82
2021/12/31 07:47:04;;;;;;;;;;;10.30;99.90;;;;;;4996865;28;19918;-83
2021/12/31 07:49:29;;;;;;;;;;;10.30;99.90;;;;;;4979289;28;20407;-83
2021/12/31 07:51:55;;;;;;;;;;;10.30;99.90;;;;;;4977932;28;19921;-82
2021/12/31 07:54:20;;;;;;;;;;;10.30;99.90;;;;;;5016631;28;19980;-83
2021/12/31 07:56:46;;;;;;;;;;;10.30;99.90;;;;;;5016216;28;19949;-82
2021/12/31 07:59:11;;;;;;;;;;;10.20;99.90;;;;;;5015568;28;20563;-82
2021/12/31 08:01:37;;;;;;;;;;;10.20;99.90;;;;;;5016517;28;20003;-83
2021/12/31 08:04:03;;;;;;;;;;;10.20;99.90;;;;;;5000002;28;20363;-83
2021/12/31 08:06:28;;;;;;;;;;;10.20;99.90;;;;;;4999601;28;19917;-82
2021/12/31 08:08:54;;;;;;;;;;;10.20;99.90;;;;;;5015493;28;20377;-82
2021/12/31 08:11:20;;;;;;;;;;;10.30;99.90;;;;;;5000055;28;19917;-82
2021/12/31 08:13:46;;;;;;;;;;;10.30;99.90;;;;;;4999833;28;19921;-82
2021/12/31 08:16:12;;;;;;;;;;;10.30;99.90;;;;;;4998792;28;19917;-81
2021/12/31 08:18:38;;;;;;;;;;;10.30;99.90;;;;;;5012201;28;19925;-82
2021/12/31 08:21:03;;;;;;;;;;;10.30;99.90;;;;;;4996275;28;19918;-82
2021/12/31 08:23:29;;;;;;;;;;;10.30;99.90;;;;;;5014668;28;19918;-83
2021/12/31 08:25:54;;;;;;;;;;;10.30;99.90;;;;;;4995601;28;19918;-82
2021/12/31 08:28:20;;;;;;;;;;;10.40;99.90;;;;;;5015236;28;19917;-82
2021/12/31 08:30:46;;;;;;;;;;;10.30;99.90;;;;;;4999336;28;19925;-82
2021/12/31 08:33:11;;;;;;;;;;;10.30;99.90;;;;;;5031880;28;19913;-83
2021/12/31 08:35:37;;;;;;;;;;;10.40;99.90;;;;;;5015171;28;20394;-83
2021/12/31 08:38:03;;;;;;;;;;;10.40;99.90;;;;;;5013286;28;19918;-82
2021/12/31 08:40:29;;;;;;;;;;;10.40;99.90;;;;;;4995918;28;19917;-83
2021/12/31 08:42:54;;;;;;;;;;;10.40;99.90;;;;;;5013876;28;19917;-82
2021/12/31 08:45:20;;;;;;;;;;;10.40;99.90;;;;;;4997639;28;19959;-82
2021/12/31 08:47:46;;;;;;;;;;;10.40;99.90;;;;;;5014558;28;20315;-83
2021/12/31 08:50:12;;;;;;;;;;;10.40;99.90;;;;;;4997925;28;19917;-83
2021/12/31 08:52:37;;;;;;;;;;;10.40;99.90;;;;;;5011110;28;19928;-82
2021/12/31 08:55:04;;;;;;;;;;;10.40;99.90;;;;;;5005630;28;19924;-82
2021/12/31 08:57:29;;;;;;;;;;;10.40;99.90;;;;;;5026507;28;20006;-82
2021/12/31 08:59:55;;;;;;;;;;;10.40;99.90;;;;;;5002561;28;19984;-82
2021/12/31 09:02:21;;;;;;;;;;;10.40;99.90;;;;;;5014778;28;20466;-82
2021/12/31 09:04:46;;;;;;;;;;;10.30;99.90;;;;;;5015203;28;19917;-82
2021/12/31 09:07:12;;;;;;;;;;;10.30;99.90;;;;;;5031242;28;19917;-82
2021/12/31 09:09:37;;;;;;;;;;;10.20;99.90;;;;;;4998044;28;19952;-82
2021/12/31 09:12:03;;;;;;;;;;;10.10;99.90;;;;;;4995467;28;20435;-82
2021/12/31 09:14:29;;;;;;;;;;;10.10;99.90;;;;;;4995600;28;20306;-82
2021/12/31 09:16:54;;;;;;;;;;;10.00;99.90;;;;;;5030390;28;20435;-82
2021/12/31 09:19:20;;;;;;;;;;;10.00;99.90;;;;;;5007827;28;19921;-82
2021/12/31 09:21:46;;;;;;;;;;;9.90;99.90;;;;;;4998375;28;19917;-83
2021/12/31 09:24:11;;;;;;;;;;;10.00;99.90;;;;;;5014518;28;20000;-82
2021/12/31 09:26:37;;;;;;;;;;;10.00;99.90;;;;;;4997566;28;19921;-83
2021/12/31 09:29:03;;;;;;;;;;;10.00;99.90;;;;;;5013993;28;20011;-82
2021/12/31 09:31:28;;;;;;;;;;;10.00;99.90;;;;;;5013287;28;19946;-83
2021/12/31 09:33:54;;;;;;;;;;;10.00;99.90;;;;;;5001152;28;20445;-82
2021/12/31 09:36:20;;;;;;;;;;;10.00;99.90;;;;;;5013957;28;19920;-82
2021/12/31 09:38:45;;;;;;;;;;;10.10;99.90;;;;;;5013796;28;19928;-83
2021/12/31 09:41:11;;;;;;;;;;;10.10;99.90;;;;;;4997351;28;19917;-83
2021/12/31 09:43:38;;;;;;;;;;;10.20;99.90;;;;;;5020152;28;19921;-83
2021/12/31 09:46:04;;;;;;;;;;;10.20;99.90;;;;;;5012445;28;19917;-83
2021/12/31 09:48:29;;;;;;;;;;;10.20;99.90;;;;;;5013226;28;20495;-82
2021/12/31 09:50:55;;;;;;;;;;;10.30;99.90;;;;;;5013830;28;20032;-83
2021/12/31 09:53:22;;;;;;;;;;;10.30;99.90;;;;;;5014012;28;20303;-83
2021/12/31 09:55:51;;;;;;;;;;;10.30;99.90;;;;;;4996999;28;19923;-82
2021/12/31 09:58:18;;;;;;;;;;;10.30;99.90;;;;;;4994596;28;21006;-82
2021/12/31 10:00:49;;;;;;;;;;;10.30;99.90;;;;;;5010224;28;19949;-83
2021/12/31 10:03:15;;;;;;;;;;;10.30;99.90;;;;;;5010567;28;20000;-83
2021/12/31 10:05:42;;;;;;;;;;;10.30;99.90;;;;;;5010021;28;20499;-83
2021/12/31 10:08:28;;;;;;;;;;;10.40;99.90;;;;;;5027489;28;19956;-83
2021/12/31 10:11:04;;;;;;;;;;;10.40;99.90;;;;;;5013357;28;19927;-82
2021/12/31 10:13:30;;;;;;;;;;;10.40;99.90;;;;;;4995303;28;19941;-83
2021/12/31 10:15:56;;;;;;;;;;;10.50;99.90;;;;;;5009959;28;19913;-83
2021/12/31 10:18:37;;;;;;;;;;;10.50;99.90;;;;;;4982907;28;20406;-83
2021/12/31 10:21:04;;;;;;;;;;;10.50;99.90;;;;;;4997202;28;19999;-83
2021/12/31 10:23:30;;;;;;;;;;;10.60;99.90;;;;;;5018888;28;19999;-83
2021/12/31 10:26:10;;;;;;;;;;;10.60;99.90;;;;;;5012953;28;19967;-84
2021/12/31 10:28:36;;;;;;;;;;;10.60;99.90;;;;;;5010089;28;19921;-84
2021/12/31 10:31:14;;;;;;;;;;;10.60;99.90;;;;;;5013414;28;20559;-84
2021/12/31 10:33:41;;;;;;;;;;;10.60;99.90;;;;;;4997132;28;19913;-84
2021/12/31 10:36:07;;;;;;;;;;;10.60;99.90;;;;;;4996404;28;19917;-84
2021/12/31 10:38:36;;;;;;;;;;;10.60;99.90;;;;;;4996236;28;19927;-83
2021/12/31 10:41:03;;;;;;;;;;;10.60;99.90;;;;;;5013389;28;19936;-83
2021/12/31 10:43:29;;;;;;;;;;;10.50;99.90;;;;;;5013524;28;19948;-83
2021/12/31 10:45:59;;;;;;;;;;;10.60;99.90;;;;;;5030147;28;19913;-85
2021/12/31 10:48:40;;;;;;;;;;;10.60;99.90;;;;;;4981425;28;20384;-84
2021/12/31 10:51:07;;;;;;;;;;;10.60;99.90;;;;;;5005266;28;19924;-83
2021/12/31 10:53:33;;;;;;;;;;;10.60;99.90;;;;;;4996998;28;19915;-85
2021/12/31 10:56:10;;;;;;;;;;;10.60;99.90;;;;;;4988746;28;19947;-84
2021/12/31 10:58:36;;;;;;;;;;;10.60;99.90;;;;;;4996386;28;19917;-83
2021/12/31 11:01:03;;;;;;;;;;;10.60;99.90;;;;;;4991162;28;19972;-85
2021/12/31 11:03:29;;;;;;;;;;;10.60;99.90;;;;;;4977741;28;20316;-83
2021/12/31 11:05:58;;;;;;;;;;;10.70;99.90;;;;;;4993278;28;19972;-85
2021/12/31 11:08:24;;;;;;;;;;;10.80;99.90;;;;;;4977023;28;19918;-85
2021/12/31 11:10:50;;;;;;;;;;;10.70;99.90;;;;;;4981271;28;20000;-83
2021/12/31 11:13:20;;;;;;;;;;;10.70;99.90;;;;;;5009401;28;19967;-83
2021/12/31 11:15:47;;;;;;;;;;;10.70;99.90;;;;;;4988968;28;19980;-85
2021/12/31 11:18:13;;;;;;;;;;;10.70;99.90;;;;;;4992380;28;20423;-83
2021/12/31 11:20:42;;;;;;;;;;;10.70;99.90;;;;;;5009183;28;19921;-83
2021/12/31 11:23:07;;;;;;;;;;;10.70;99.90;;;;;;5011928;28;19917;-83
2021/12/31 11:25:33;;;;;;;;;;;10.60;99.90;;;;;;5012573;28;19917;-83
2021/12/31 11:27:59;;;;;;;;;;;10.70;99.90;;;;;;5014096;28;19920;-84
2021/12/31 11:30:30;;;;;;;;;;;10.60;99.90;;;;;;4994098;28;19920;-85
2021/12/31 11:33:26;;;;;;;;;;;10.70;99.90;;;;;;5010683;28;19920;-85
2021/12/31 11:36:02;;;;;;;;;;;10.70;99.90;;;;;;4989827;28;19914;-85
2021/12/31 11:38:28;;;;;;;;;;;10.70;99.90;;;;;;5024268;28;19917;-85
2021/12/31 11:41:12;;;;;;;;;;;10.70;99.90;;;;;;5011252;28;19971;-84
2021/12/31 11:43:42;;;;;;;;;;;10.70;99.90;;;;;;5013434;28;19917;-85
2021/12/31 11:46:12;;;;;;;;;;;10.70;99.90;;;;;;4992239;28;19918;-85
2021/12/31 11:48:51;;;;;;;;;;;10.70;99.90;;;;;;4996813;28;19928;-84
2021/12/31 11:51:17;;;;;;;;;;;10.80;99.90;;;;;;5009823;28;19928;-85
2021/12/31 11:54:01;;;;;;;;;;;10.80;99.90;;;;;;5010416;28;20030;-85
2021/12/31 11:56:33;;;;;;;;;;;10.80;99.90;;;;;;4998136;28;20363;-85
2021/12/31 11:59:20;;;;;;;;;;;10.90;99.90;;;;;;5002872;28;19947;-85
2021/12/31 12:01:50;;;;;;;;;;;11.00;99.90;;;;;;5012833;28;20335;-84
2021/12/31 12:04:21;;;;;;;;;;;11.10;99.90;;;;;;5010705;28;19913;-86
2021/12/31 12:06:50;;;;;;;;;;;11.00;99.90;;;;;;5003686;28;20399;-84
2021/12/31 12:09:15;;;;;;;;;;;11.10;99.90;;;;;;5013246;28;19913;-85
2021/12/31 12:11:56;;;;;;;;;;;11.10;99.90;;;;;;4995719;28;19918;-83
2021/12/31 12:14:29;;;;;;;;;;;11.10;99.90;;;;;;4977505;28;19913;-83
2021/12/31 12:16:58;;;;;;;;;;;11.20;99.90;;;;;;5004853;28;19913;-85
2021/12/31 12:19:42;;;;;;;;;;;11.20;99.90;;;;;;4995305;28;19921;-83
2021/12/31 12:22:08;;;;;;;;;;;11.20;99.90;;;;;;5012847;28;19913;-85
2021/12/31 12:24:34;;;;;;;;;;;11.30;99.90;;;;;;4995895;28;19967;-84
2021/12/31 12:27:02;;;;;;;;;;;11.30;99.90;;;;;;4996129;28;19913;-83
2021/12/31 12:29:28;;;;;;;;;;;11.30;99.90;;;;;;5011925;28;19991;-83
2021/12/31 12:32:06;;;;;;;;;;;11.30;99.90;;;;;;4998845;28;20364;-83
2021/12/31 12:34:31;;;;;;;;;;;11.30;99.90;;;;;;5009746;28;20003;-84
2021/12/31 12:36:57;;;;;;;;;;;11.20;99.90;;;;;;5002819;28;20019;-83
2021/12/31 12:39:23;;;;;;;;;;;11.20;99.90;;;;;;4994252;28;20028;-84
2021/12/31 12:41:49;;;;;;;;;;;11.20;99.90;;;;;;5019931;28;19961;-83
2021/12/31 12:44:16;;;;;;;;;;;11.20;99.90;;;;;;5012642;28;19948;-84
2021/12/31 12:46:58;;;;;;;;;;;11.10;99.90;;;;;;4994600;28;20533;-83
2021/12/31 12:49:26;;;;;;;;;;;11.10;99.90;;;;;;4994990;28;19920;-83
2021/12/31 12:51:52;;;;;;;;;;;11.10;99.90;;;;;;5011702;28;19925;-83
2021/12/31 12:54:21;;;;;;;;;;;11.10;99.90;;;;;;4995512;28;20371;-85
2021/12/31 12:56:47;;;;;;;;;;;11.10;99.90;;;;;;4995269;28;19956;-84
2021/12/31 12:59:21;;;;;;;;;;;11.10;99.90;;;;;;4993877;28;19967;-84
2021/12/31 13:01:48;;;;;;;;;;;11.00;99.90;;;;;;5011252;28;19963;-79
2021/12/31 13:04:14;;;;;;;;;;;11.10;99.90;;;;;;4993644;28;19949;-80
2021/12/31 13:06:44;;;;;;;;;;;11.10;99.90;;;;;;5011020;28;20342;-86
2021/12/31 13:09:15;;;;;;;;;;;11.10;99.90;;;;;;5010737;28;19914;-85
2021/12/31 13:11:47;;;;;;;;;;;11.10;99.90;;;;;;4996036;28;20004;-85
2021/12/31 13:14:14;;;;;;;;;;;11.10;99.90;;;;;;4996327;28;19913;-85
2021/12/31 13:16:41;;;;;;;;;;;11.20;99.90;;;;;;5016670;28;19913;-85
2021/12/31 13:19:09;;;;;;;;;;;11.20;99.90;;;;;;4984820;28;19928;-85
2021/12/31 13:21:35;;;;;;;;;;;11.30;99.90;;;;;;4996123;28;19917;-85
2021/12/31 13:24:01;;;;;;;;;;;11.40;99.90;;;;;;5011454;28;19920;-85
2021/12/31 13:26:27;;;;;;;;;;;11.40;99.90;;;;;;5017747;28;20008;-84
2021/12/31 13:29:00;;;;;;;;;;;11.50;99.90;;;;;;5010469;28;19913;-83
2021/12/31 13:31:33;;;;;;;;;;;11.50;99.90;;;;;;5010901;28;20013;-84
2021/12/31 13:34:09;;;;;;;;;;;11.40;99.90;;;;;;5010780;28;20002;-86
2021/12/31 13:36:42;;;;;;;;;;;11.40;99.90;;;;;;4990925;28;20649;-86
2021/12/31 13:39:10;;;;;;;;;;;11.40;99.90;;;;;;4974444;28;20015;-83
2021/12/31 13:41:41;;;;;;;;;;;11.40;99.90;;;;;;4988233;28;20521;-83
2021/12/31 13:44:07;;;;;;;;;;;11.40;99.90;;;;;;4994648;28;20403;-83
2021/12/31 13:46:37;;;;;;;;;;;11.30;99.90;;;;;;5010141;28;19956;-84
2021/12/31 13:49:07;;;;;;;;;;;11.30;99.90;;;;;;4994442;28;19917;-83
2021/12/31 13:51:35;;;;;;;;;;;11.30;99.90;;;;;;5011119;28;19917;-85
2021/12/31 13:54:01;;;;;;;;;;;11.40;99.90;;;;;;5010640;28;20020;-85
2021/12/31 13:56:45;;;;;;;;;;;11.40;99.90;;;;;;5010881;28;19948;-84
2021/12/31 13:59:14;;;;;;;;;;;11.30;99.90;;;;;;5010226;28;19925;-85
2021/12/31 14:01:42;;;;;;;;;;;11.30;99.90;;;;;;5011858;28;19913;-85
2021/12/31 14:04:11;;;;;;;;;;;11.30;99.90;;;;;;4995580;28;19956;-85
2021/12/31 14:06:38;;;;;;;;;;;11.30;99.90;;;;;;5010116;28;19924;-85
2021/12/31 14:09:04;;;;;;;;;;;11.30;99.90;;;;;;5010403;28;19917;-86
2021/12/31 14:11:30;;;;;;;;;;;11.30;99.90;;;;;;4994686;28;20468;-87
2021/12/31 14:13:55;;;;;;;;;;;11.20;99.90;;;;;;4993966;28;20438;-86
2021/12/31 14:16:21;;;;;;;;;;;11.20;99.90;;;;;;4993740;28;19921;-87
2021/12/31 14:18:47;;;;;;;;;;;11.20;99.90;;;;;;4997827;28;19925;-85
2021/12/31 14:21:12;;;;;;;;;;;11.20;99.90;;;;;;4992480;28;19917;-86
2021/12/31 14:23:38;;;;;;;;;;;11.20;99.90;;;;;;5012588;28;19920;-86